sensor_id;sensor_type;location;lat;lon;timestamp;temperature;humidity
75436;DHT22;64014;53.432;14.534;2022-12-13T00:01:14;-2.10;72.40
75436;DHT22;64014;53.432;14.534;2022-12-13T00:03:40;-2.00;72.40
75436;DHT22;64014;53.432;14.534;2022-12-13T00:06:07;-2.10;72.50
75436;DHT22;64014;53.432;14.534;2022-12-13T00:08:34;-2.00;72.60
75436;DHT22;64014;53.432;14.534;2022-12-13T00:11:01;-2.00;72.70
75436;DHT22;64014;53.432;14.534;2022-12-13T00:13:28;-2.00;72.90
75436;DHT22;64014;53.432;14.534;2022-12-13T00:15:58;-2.00;73.00
75436;DHT22;64014;53.432;14.534;2022-12-13T00:18:25;-2.00;73.00
75436;DHT22;64014;53.432;14.534;2022-12-13T00:20:51;-2.00;73.10
75436;DHT22;64014;53.432;14.534;2022-12-13T00:23:16;-2.00;73.20
75436;DHT22;64014;53.432;14.534;2022-12-13T00:25:42;-2.00;73.30
75436;DHT22;64014;53.432;14.534;2022-12-13T00:28:08;-2.10;73.40
75436;DHT22;64014;53.432;14.534;2022-12-13T00:30:34;-2.10;73.70
75436;DHT22;64014;53.432;14.534;2022-12-13T00:33:00;-2.10;73.90
75436;DHT22;64014;53.432;14.534;2022-12-13T00:35:25;-2.10;74.00
75436;DHT22;64014;53.432;14.534;2022-12-13T00:37:51;-2.10;74.00
75436;DHT22;64014;53.432;14.534;2022-12-13T00:40:17;-2.10;74.00
75436;DHT22;64014;53.432;14.534;2022-12-13T00:42:43;-2.10;74.20
75436;DHT22;64014;53.432;14.534;2022-12-13T00:45:09;-2.10;74.20
75436;DHT22;64014;53.432;14.534;2022-12-13T00:47:35;-2.10;74.20
75436;DHT22;64014;53.432;14.534;2022-12-13T00:50:02;-2.10;74.10
75436;DHT22;64014;53.432;14.534;2022-12-13T00:52:28;-2.00;74.00
75436;DHT22;64014;53.432;14.534;2022-12-13T00:54:54;-2.00;74.00
75436;DHT22;64014;53.432;14.534;2022-12-13T00:57:19;-2.00;73.90
75436;DHT22;64014;53.432;14.534;2022-12-13T00:59:45;-1.90;73.80
75436;DHT22;64014;53.432;14.534;2022-12-13T01:02:11;-1.90;73.70
75436;DHT22;64014;53.432;14.534;2022-12-13T01:04:38;-2.00;73.70
75436;DHT22;64014;53.432;14.534;2022-12-13T01:07:03;-2.00;73.70
75436;DHT22;64014;53.432;14.534;2022-12-13T01:09:29;-2.10;73.80
75436;DHT22;64014;53.432;14.534;2022-12-13T01:11:58;-2.20;74.10
75436;DHT22;64014;53.432;14.534;2022-12-13T01:14:25;-2.30;74.60
75436;DHT22;64014;53.432;14.534;2022-12-13T01:16:51;-2.50;75.10
75436;DHT22;64014;53.432;14.534;2022-12-13T01:19:21;-2.60;75.40
75436;DHT22;64014;53.432;14.534;2022-12-13T01:21:47;-2.70;75.90
75436;DHT22;64014;53.432;14.534;2022-12-13T01:24:13;-2.80;76.30
75436;DHT22;64014;53.432;14.534;2022-12-13T01:26:40;-2.90;76.50
75436;DHT22;64014;53.432;14.534;2022-12-13T01:29:08;-3.00;76.90
75436;DHT22;64014;53.432;14.534;2022-12-13T01:31:35;-3.00;77.10
75436;DHT22;64014;53.432;14.534;2022-12-13T01:34:09;-3.00;77.10
75436;DHT22;64014;53.432;14.534;2022-12-13T01:36:39;-2.90;76.80
75436;DHT22;64014;53.432;14.534;2022-12-13T01:39:05;-2.80;76.50
75436;DHT22;64014;53.432;14.534;2022-12-13T01:41:32;-2.70;76.20
75436;DHT22;64014;53.432;14.534;2022-12-13T01:46:45;-2.60;75.50
75436;DHT22;64014;53.432;14.534;2022-12-13T01:49:14;-2.60;75.40
75436;DHT22;64014;53.432;14.534;2022-12-13T01:51:47;-2.60;75.20
75436;DHT22;64014;53.432;14.534;2022-12-13T01:54:17;-2.50;75.10
75436;DHT22;64014;53.432;14.534;2022-12-13T01:56:50;-2.50;74.90
75436;DHT22;64014;53.432;14.534;2022-12-13T01:59:17;-2.50;74.50
75436;DHT22;64014;53.432;14.534;2022-12-13T02:01:45;-2.50;74.30
75436;DHT22;64014;53.432;14.534;2022-12-13T02:04:12;-2.50;74.30
75436;DHT22;64014;53.432;14.534;2022-12-13T02:06:41;-2.60;74.50
75436;DHT22;64014;53.432;14.534;2022-12-13T02:09:09;-2.70;74.60
75436;DHT22;64014;53.432;14.534;2022-12-13T02:11:37;-2.80;74.80
75436;DHT22;64014;53.432;14.534;2022-12-13T02:14:03;-2.90;75.10
75436;DHT22;64014;53.432;14.534;2022-12-13T02:16:55;-3.00;75.40
75436;DHT22;64014;53.432;14.534;2022-12-13T02:30:43;-3.20;75.90
75436;DHT22;64014;53.432;14.534;2022-12-13T02:36:29;-3.30;75.90
75436;DHT22;64014;53.432;14.534;2022-12-13T02:39:22;-3.40;75.80
75436;DHT22;64014;53.432;14.534;2022-12-13T02:41:50;-3.40;75.70
75436;DHT22;64014;53.432;14.534;2022-12-13T02:44:30;-3.40;75.50
75436;DHT22;64014;53.432;14.534;2022-12-13T02:47:05;-3.40;75.30
75436;DHT22;64014;53.432;14.534;2022-12-13T02:49:33;-3.50;75.20
75436;DHT22;64014;53.432;14.534;2022-12-13T02:52:02;-3.50;75.10
75436;DHT22;64014;53.432;14.534;2022-12-13T02:54:29;-3.50;75.00
75436;DHT22;64014;53.432;14.534;2022-12-13T02:56:56;-3.60;75.00
75436;DHT22;64014;53.432;14.534;2022-12-13T02:59:28;-3.60;74.90
75436;DHT22;64014;53.432;14.534;2022-12-13T03:05:08;-3.60;74.50
75436;DHT22;64014;53.432;14.534;2022-12-13T03:08:16;-3.60;74.60
75436;DHT22;64014;53.432;14.534;2022-12-13T03:16:20;-3.70;74.70
75436;DHT22;64014;53.432;14.534;2022-12-13T03:18:47;-3.80;74.80
75436;DHT22;64014;53.432;14.534;2022-12-13T03:21:15;-3.80;75.00
75436;DHT22;64014;53.432;14.534;2022-12-13T03:23:40;-3.80;75.00
75436;DHT22;64014;53.432;14.534;2022-12-13T03:26:25;-3.80;75.10
75436;DHT22;64014;53.432;14.534;2022-12-13T03:28:52;-3.80;75.10
75436;DHT22;64014;53.432;14.534;2022-12-13T03:31:18;-3.80;75.20
75436;DHT22;64014;53.432;14.534;2022-12-13T03:33:44;-3.80;75.20
75436;DHT22;64014;53.432;14.534;2022-12-13T03:36:10;-3.80;75.20
75436;DHT22;64014;53.432;14.534;2022-12-13T03:38:37;-3.80;75.30
75436;DHT22;64014;53.432;14.534;2022-12-13T03:41:11;-3.80;75.30
75436;DHT22;64014;53.432;14.534;2022-12-13T03:43:37;-3.80;75.30
75436;DHT22;64014;53.432;14.534;2022-12-13T03:46:05;-3.80;75.40
75436;DHT22;64014;53.432;14.534;2022-12-13T03:48:31;-3.80;75.40
75436;DHT22;64014;53.432;14.534;2022-12-13T03:50:57;-3.80;75.40
75436;DHT22;64014;53.432;14.534;2022-12-13T03:53:24;-3.70;75.30
75436;DHT22;64014;53.432;14.534;2022-12-13T03:55:50;-3.60;75.30
75436;DHT22;64014;53.432;14.534;2022-12-13T03:58:16;-3.60;75.00
75436;DHT22;64014;53.432;14.534;2022-12-13T04:00:42;-3.50;74.70
75436;DHT22;64014;53.432;14.534;2022-12-13T04:03:08;-3.40;74.40
75436;DHT22;64014;53.432;14.534;2022-12-13T04:05:34;-3.20;73.80
75436;DHT22;64014;53.432;14.534;2022-12-13T04:08:00;-3.20;73.50
75436;DHT22;64014;53.432;14.534;2022-12-13T04:10:26;-3.20;73.40
75436;DHT22;64014;53.432;14.534;2022-12-13T04:12:51;-3.10;73.20
75436;DHT22;64014;53.432;14.534;2022-12-13T04:15:46;-3.00;73.00
75436;DHT22;64014;53.432;14.534;2022-12-13T04:18:16;-2.90;72.50
75436;DHT22;64014;53.432;14.534;2022-12-13T04:20:43;-2.80;71.80
75436;DHT22;64014;53.432;14.534;2022-12-13T04:23:08;-2.70;71.60
75436;DHT22;64014;53.432;14.534;2022-12-13T04:25:34;-2.70;71.40
75436;DHT22;64014;53.432;14.534;2022-12-13T04:28:00;-2.70;71.00
75436;DHT22;64014;53.432;14.534;2022-12-13T04:30:26;-2.70;70.70
75436;DHT22;64014;53.432;14.534;2022-12-13T04:32:52;-2.60;70.60
75436;DHT22;64014;53.432;14.534;2022-12-13T04:35:17;-2.60;70.40
75436;DHT22;64014;53.432;14.534;2022-12-13T04:37:43;-2.60;70.40
75436;DHT22;64014;53.432;14.534;2022-12-13T04:40:10;-2.60;70.30
75436;DHT22;64014;53.432;14.534;2022-12-13T04:42:36;-2.50;69.80
75436;DHT22;64014;53.432;14.534;2022-12-13T04:45:02;-2.50;69.80
75436;DHT22;64014;53.432;14.534;2022-12-13T04:47:28;-2.50;69.60
75436;DHT22;64014;53.432;14.534;2022-12-13T04:49:53;-2.50;69.40
75436;DHT22;64014;53.432;14.534;2022-12-13T04:52:19;-2.50;69.40
75436;DHT22;64014;53.432;14.534;2022-12-13T04:54:45;-2.50;69.40
75436;DHT22;64014;53.432;14.534;2022-12-13T04:57:11;-2.50;69.50
75436;DHT22;64014;53.432;14.534;2022-12-13T04:59:37;-2.40;69.50
75436;DHT22;64014;53.432;14.534;2022-12-13T05:02:04;-2.40;69.30
75436;DHT22;64014;53.432;14.534;2022-12-13T05:04:30;-2.40;69.30
75436;DHT22;64014;53.432;14.534;2022-12-13T05:06:56;-2.40;69.40
75436;DHT22;64014;53.432;14.534;2022-12-13T05:09:22;-2.40;69.70
75436;DHT22;64014;53.432;14.534;2022-12-13T05:11:48;-2.40;69.80
75436;DHT22;64014;53.432;14.534;2022-12-13T05:14:14;-2.30;69.70
75436;DHT22;64014;53.432;14.534;2022-12-13T05:16:40;-2.40;69.70
75436;DHT22;64014;53.432;14.534;2022-12-13T05:19:06;-2.40;69.90
75436;DHT22;64014;53.432;14.534;2022-12-13T05:21:32;-2.40;70.00
75436;DHT22;64014;53.432;14.534;2022-12-13T05:24:00;-2.40;70.20
75436;DHT22;64014;53.432;14.534;2022-12-13T05:26:26;-2.40;70.30
75436;DHT22;64014;53.432;14.534;2022-12-13T05:28:55;-2.30;70.20
75436;DHT22;64014;53.432;14.534;2022-12-13T05:31:21;-2.30;70.10
75436;DHT22;64014;53.432;14.534;2022-12-13T05:33:46;-2.30;70.00
75436;DHT22;64014;53.432;14.534;2022-12-13T05:36:12;-2.30;70.00
75436;DHT22;64014;53.432;14.534;2022-12-13T05:38:38;-2.30;69.90
75436;DHT22;64014;53.432;14.534;2022-12-13T05:41:04;-2.30;70.00
75436;DHT22;64014;53.432;14.534;2022-12-13T05:43:30;-2.30;70.00
75436;DHT22;64014;53.432;14.534;2022-12-13T05:45:56;-2.30;69.90
75436;DHT22;64014;53.432;14.534;2022-12-13T05:48:21;-2.30;69.80
75436;DHT22;64014;53.432;14.534;2022-12-13T05:50:47;-2.30;69.80
75436;DHT22;64014;53.432;14.534;2022-12-13T05:53:13;-2.30;69.90
75436;DHT22;64014;53.432;14.534;2022-12-13T05:55:40;-2.30;69.70
75436;DHT22;64014;53.432;14.534;2022-12-13T05:58:06;-2.20;69.70
75436;DHT22;64014;53.432;14.534;2022-12-13T06:00:32;-2.20;69.40
75436;DHT22;64014;53.432;14.534;2022-12-13T06:02:59;-2.20;69.30
75436;DHT22;64014;53.432;14.534;2022-12-13T06:05:24;-2.30;69.30
75436;DHT22;64014;53.432;14.534;2022-12-13T06:07:52;-2.30;69.20
75436;DHT22;64014;53.432;14.534;2022-12-13T06:10:18;-2.30;69.10
75436;DHT22;64014;53.432;14.534;2022-12-13T06:12:44;-2.30;69.10
75436;DHT22;64014;53.432;14.534;2022-12-13T06:15:09;-2.30;69.10
75436;DHT22;64014;53.432;14.534;2022-12-13T06:17:36;-2.30;69.20
75436;DHT22;64014;53.432;14.534;2022-12-13T06:20:03;-2.30;69.10
75436;DHT22;64014;53.432;14.534;2022-12-13T06:22:28;-2.20;69.00
75436;DHT22;64014;53.432;14.534;2022-12-13T06:24:54;-2.20;69.00
75436;DHT22;64014;53.432;14.534;2022-12-13T06:27:20;-2.20;69.00
75436;DHT22;64014;53.432;14.534;2022-12-13T06:29:46;-2.20;68.90
75436;DHT22;64014;53.432;14.534;2022-12-13T06:32:12;-2.20;69.00
75436;DHT22;64014;53.432;14.534;2022-12-13T06:34:38;-2.20;68.90
75436;DHT22;64014;53.432;14.534;2022-12-13T06:37:06;-2.20;68.90
75436;DHT22;64014;53.432;14.534;2022-12-13T06:39:33;-2.20;69.00
75436;DHT22;64014;53.432;14.534;2022-12-13T06:41:59;-2.20;68.80
75436;DHT22;64014;53.432;14.534;2022-12-13T06:44:25;-2.20;68.90
75436;DHT22;64014;53.432;14.534;2022-12-13T06:46:50;-2.30;69.00
75436;DHT22;64014;53.432;14.534;2022-12-13T06:49:16;-2.20;69.00
75436;DHT22;64014;53.432;14.534;2022-12-13T06:51:42;-2.20;68.90
75436;DHT22;64014;53.432;14.534;2022-12-13T06:54:07;-2.20;68.90
75436;DHT22;64014;53.432;14.534;2022-12-13T06:56:33;-2.20;68.90
75436;DHT22;64014;53.432;14.534;2022-12-13T06:58:59;-2.10;68.80
75436;DHT22;64014;53.432;14.534;2022-12-13T07:01:25;-2.10;68.80
75436;DHT22;64014;53.432;14.534;2022-12-13T07:03:53;-2.10;68.40
75436;DHT22;64014;53.432;14.534;2022-12-13T07:06:21;-2.10;68.50
75436;DHT22;64014;53.432;14.534;2022-12-13T07:08:50;-2.10;68.40
75436;DHT22;64014;53.432;14.534;2022-12-13T07:11:18;-2.10;68.50
75436;DHT22;64014;53.432;14.534;2022-12-13T07:13:44;-2.10;68.40
75436;DHT22;64014;53.432;14.534;2022-12-13T07:16:11;-2.10;68.30
75436;DHT22;64014;53.432;14.534;2022-12-13T07:18:37;-2.10;68.40
75436;DHT22;64014;53.432;14.534;2022-12-13T07:21:04;-2.10;68.30
75436;DHT22;64014;53.432;14.534;2022-12-13T07:23:30;-2.10;68.60
75436;DHT22;64014;53.432;14.534;2022-12-13T07:25:56;-2.10;68.70
75436;DHT22;64014;53.432;14.534;2022-12-13T07:28:22;-2.10;68.60
75436;DHT22;64014;53.432;14.534;2022-12-13T07:30:48;-2.10;68.60
75436;DHT22;64014;53.432;14.534;2022-12-13T07:33:14;-2.10;68.70
75436;DHT22;64014;53.432;14.534;2022-12-13T07:35:40;-2.10;68.60
75436;DHT22;64014;53.432;14.534;2022-12-13T07:38:07;-2.10;68.20
75436;DHT22;64014;53.432;14.534;2022-12-13T07:40:34;-2.10;68.20
75436;DHT22;64014;53.432;14.534;2022-12-13T07:43:00;-2.10;68.30
75436;DHT22;64014;53.432;14.534;2022-12-13T07:45:26;-2.10;68.30
75436;DHT22;64014;53.432;14.534;2022-12-13T07:47:52;-2.10;68.40
75436;DHT22;64014;53.432;14.534;2022-12-13T07:50:18;-2.10;68.50
75436;DHT22;64014;53.432;14.534;2022-12-13T07:52:50;-2.10;68.20
75436;DHT22;64014;53.432;14.534;2022-12-13T07:55:16;-2.00;68.20
75436;DHT22;64014;53.432;14.534;2022-12-13T07:57:45;-1.90;68.00
75436;DHT22;64014;53.432;14.534;2022-12-13T08:00:11;-1.90;68.00
75436;DHT22;64014;53.432;14.534;2022-12-13T08:02:39;-1.90;68.00
75436;DHT22;64014;53.432;14.534;2022-12-13T08:05:05;-1.90;67.90
75436;DHT22;64014;53.432;14.534;2022-12-13T08:07:31;-1.90;67.60
75436;DHT22;64014;53.432;14.534;2022-12-13T08:09:57;-1.90;67.70
75436;DHT22;64014;53.432;14.534;2022-12-13T08:12:23;-1.90;67.70
75436;DHT22;64014;53.432;14.534;2022-12-13T08:14:49;-1.90;67.70
75436;DHT22;64014;53.432;14.534;2022-12-13T08:17:15;-1.90;67.90
75436;DHT22;64014;53.432;14.534;2022-12-13T08:19:41;-1.90;67.60
75436;DHT22;64014;53.432;14.534;2022-12-13T08:22:10;-1.80;67.50
75436;DHT22;64014;53.432;14.534;2022-12-13T08:24:36;-1.80;67.40
75436;DHT22;64014;53.432;14.534;2022-12-13T08:27:02;-1.80;67.00
75436;DHT22;64014;53.432;14.534;2022-12-13T08:29:30;-1.80;67.30
75436;DHT22;64014;53.432;14.534;2022-12-13T08:31:56;-1.80;67.40
75436;DHT22;64014;53.432;14.534;2022-12-13T08:34:22;-1.80;67.10
75436;DHT22;64014;53.432;14.534;2022-12-13T08:36:48;-1.70;67.20
75436;DHT22;64014;53.432;14.534;2022-12-13T08:39:14;-1.70;67.40
75436;DHT22;64014;53.432;14.534;2022-12-13T08:41:39;-1.60;67.20
75436;DHT22;64014;53.432;14.534;2022-12-13T08:44:05;-1.60;66.90
75436;DHT22;64014;53.432;14.534;2022-12-13T08:46:31;-1.60;66.60
75436;DHT22;64014;53.432;14.534;2022-12-13T08:48:57;-1.50;66.40
75436;DHT22;64014;53.432;14.534;2022-12-13T08:51:23;-1.50;66.40
75436;DHT22;64014;53.432;14.534;2022-12-13T08:53:52;-1.50;66.20
75436;DHT22;64014;53.432;14.534;2022-12-13T08:56:18;-1.50;66.40
75436;DHT22;64014;53.432;14.534;2022-12-13T08:58:48;-1.40;66.40
75436;DHT22;64014;53.432;14.534;2022-12-13T09:01:14;-1.40;66.20
75436;DHT22;64014;53.432;14.534;2022-12-13T09:03:40;-1.30;66.70
75436;DHT22;64014;53.432;14.534;2022-12-13T09:06:14;-1.30;66.40
75436;DHT22;64014;53.432;14.534;2022-12-13T09:08:41;-1.30;65.90
75436;DHT22;64014;53.432;14.534;2022-12-13T09:11:08;-1.30;65.90
75436;DHT22;64014;53.432;14.534;2022-12-13T09:13:35;-1.30;65.60
75436;DHT22;64014;53.432;14.534;2022-12-13T09:16:12;-1.30;65.20
75436;DHT22;64014;53.432;14.534;2022-12-13T09:18:39;-1.30;65.10
75436;DHT22;64014;53.432;14.534;2022-12-13T09:21:07;-1.30;65.70
75436;DHT22;64014;53.432;14.534;2022-12-13T09:23:33;-1.30;65.40
75436;DHT22;64014;53.432;14.534;2022-12-13T09:25:59;-1.30;64.70
75436;DHT22;64014;53.432;14.534;2022-12-13T09:28:29;-1.30;64.80
75436;DHT22;64014;53.432;14.534;2022-12-13T09:30:55;-1.20;64.50
75436;DHT22;64014;53.432;14.534;2022-12-13T09:33:21;-1.10;64.30
75436;DHT22;64014;53.432;14.534;2022-12-13T09:35:47;-1.10;63.70
75436;DHT22;64014;53.432;14.534;2022-12-13T09:38:13;-1.10;63.40
75436;DHT22;64014;53.432;14.534;2022-12-13T09:40:40;-1.00;63.50
75436;DHT22;64014;53.432;14.534;2022-12-13T09:43:12;-0.80;63.00
75436;DHT22;64014;53.432;14.534;2022-12-13T09:45:43;-0.70;62.50
75436;DHT22;64014;53.432;14.534;2022-12-13T09:48:16;-0.60;62.10
75436;DHT22;64014;53.432;14.534;2022-12-13T09:50:42;-0.50;62.00
75436;DHT22;64014;53.432;14.534;2022-12-13T09:53:10;-0.30;61.80
75436;DHT22;64014;53.432;14.534;2022-12-13T09:55:40;-0.30;61.10
75436;DHT22;64014;53.432;14.534;2022-12-13T09:58:13;-0.30;61.40
75436;DHT22;64014;53.432;14.534;2022-12-13T10:00:42;-0.20;60.80
75436;DHT22;64014;53.432;14.534;2022-12-13T10:03:13;-0.20;60.50
75436;DHT22;64014;53.432;14.534;2022-12-13T10:05:43;-0.10;60.40
75436;DHT22;64014;53.432;14.534;2022-12-13T10:08:15;-0.10;59.80
75436;DHT22;64014;53.432;14.534;2022-12-13T10:10:42;-0.10;59.60
75436;DHT22;64014;53.432;14.534;2022-12-13T10:13:20;-0.10;59.50
75436;DHT22;64014;53.432;14.534;2022-12-13T10:15:50;-0.10;59.80
75436;DHT22;64014;53.432;14.534;2022-12-13T10:18:27;-0.10;59.50
75436;DHT22;64014;53.432;14.534;2022-12-13T10:20:56;0.00;58.90
75436;DHT22;64014;53.432;14.534;2022-12-13T10:23:22;0.00;58.50
75436;DHT22;64014;53.432;14.534;2022-12-13T10:25:52;0.00;58.50
75436;DHT22;64014;53.432;14.534;2022-12-13T10:28:32;0.00;58.20
75436;DHT22;64014;53.432;14.534;2022-12-13T10:30:58;0.00;58.60
75436;DHT22;64014;53.432;14.534;2022-12-13T10:33:31;0.10;58.40
75436;DHT22;64014;53.432;14.534;2022-12-13T10:36:07;0.00;58.30
75436;DHT22;64014;53.432;14.534;2022-12-13T10:38:41;0.20;58.30
75436;DHT22;64014;53.432;14.534;2022-12-13T10:44:15;0.30;58.30
75436;DHT22;64014;53.432;14.534;2022-12-13T10:47:31;0.30;57.90
75436;DHT22;64014;53.432;14.534;2022-12-13T10:49:38;0.30;57.90
75436;DHT22;64014;53.432;14.534;2022-12-13T10:52:06;0.30;57.90
75436;DHT22;64014;53.432;14.534;2022-12-13T10:54:34;0.40;57.90
75436;DHT22;64014;53.432;14.534;2022-12-13T10:57:01;0.40;58.00
75436;DHT22;64014;53.432;14.534;2022-12-13T10:59:33;0.30;58.20
75436;DHT22;64014;53.432;14.534;2022-12-13T11:02:01;0.40;58.10
75436;DHT22;64014;53.432;14.534;2022-12-13T11:04:44;0.40;58.00
75436;DHT22;64014;53.432;14.534;2022-12-13T11:07:31;0.40;58.00
75436;DHT22;64014;53.432;14.534;2022-12-13T11:10:14;0.60;58.10
75436;DHT22;64014;53.432;14.534;2022-12-13T11:12:41;0.70;57.60
75436;DHT22;64014;53.432;14.534;2022-12-13T11:15:12;0.70;57.70
75436;DHT22;64014;53.432;14.534;2022-12-13T11:17:51;0.70;57.40
75436;DHT22;64014;53.432;14.534;2022-12-13T11:20:25;0.60;57.40
75436;DHT22;64014;53.432;14.534;2022-12-13T11:23:16;0.60;57.40
75436;DHT22;64014;53.432;14.534;2022-12-13T11:25:44;0.50;57.90
75436;DHT22;64014;53.432;14.534;2022-12-13T11:33:36;0.50;58.00
75436;DHT22;64014;53.432;14.534;2022-12-13T11:36:31;0.50;57.90
75436;DHT22;64014;53.432;14.534;2022-12-13T11:39:18;0.40;58.20
75436;DHT22;64014;53.432;14.534;2022-12-13T11:48:04;0.50;58.40
75436;DHT22;64014;53.432;14.534;2022-12-13T11:50:43;0.50;58.60
75436;DHT22;64014;53.432;14.534;2022-12-13T11:53:33;0.60;58.20
75436;DHT22;64014;53.432;14.534;2022-12-13T12:07:13;0.70;57.90
75436;DHT22;64014;53.432;14.534;2022-12-13T12:09:46;0.70;57.90
75436;DHT22;64014;53.432;14.534;2022-12-13T12:12:22;0.60;58.00
75436;DHT22;64014;53.432;14.534;2022-12-13T12:17:37;0.60;58.20
75436;DHT22;64014;53.432;14.534;2022-12-13T12:20:04;0.60;58.30
75436;DHT22;64014;53.432;14.534;2022-12-13T12:22:53;0.60;58.30
75436;DHT22;64014;53.432;14.534;2022-12-13T12:25:36;0.60;57.90
75436;DHT22;64014;53.432;14.534;2022-12-13T12:41:36;0.80;56.30
75436;DHT22;64014;53.432;14.534;2022-12-13T12:56:26;0.60;55.80
75436;DHT22;64014;53.432;14.534;2022-12-13T13:05:15;0.70;55.00
75436;DHT22;64014;53.432;14.534;2022-12-13T13:07:50;0.90;53.60
75436;DHT22;64014;53.432;14.534;2022-12-13T13:10:18;1.00;52.90
75436;DHT22;64014;53.432;14.534;2022-12-13T13:12:44;1.10;51.90
75436;DHT22;64014;53.432;14.534;2022-12-13T13:18:00;1.50;50.50
75436;DHT22;64014;53.432;14.534;2022-12-13T13:20:27;1.40;50.20
75436;DHT22;64014;53.432;14.534;2022-12-13T13:22:55;1.00;50.50
75436;DHT22;64014;53.432;14.534;2022-12-13T13:27:51;0.60;51.40
75436;DHT22;64014;53.432;14.534;2022-12-13T13:30:25;0.40;52.20
75436;DHT22;64014;53.432;14.534;2022-12-13T13:32:56;0.20;52.80
75436;DHT22;64014;53.432;14.534;2022-12-13T13:38:04;-0.10;54.10
75436;DHT22;64014;53.432;14.534;2022-12-13T13:40:49;-0.10;54.60
75436;DHT22;64014;53.432;14.534;2022-12-13T13:43:17;-0.10;55.10
75436;DHT22;64014;53.432;14.534;2022-12-13T13:45:57;-0.10;55.60
75436;DHT22;64014;53.432;14.534;2022-12-13T13:52:05;-0.30;57.00
75436;DHT22;64014;53.432;14.534;2022-12-13T14:05:13;-0.90;63.00
75436;DHT22;64014;53.432;14.534;2022-12-13T14:08:08;-1.10;64.00
75436;DHT22;64014;53.432;14.534;2022-12-13T14:10:54;-1.10;64.70
75436;DHT22;64014;53.432;14.534;2022-12-13T14:16:50;-1.30;66.90
75436;DHT22;64014;53.432;14.534;2022-12-13T14:22:43;-1.10;67.40
75436;DHT22;64014;53.432;14.534;2022-12-13T14:30:24;-1.10;68.10
75436;DHT22;64014;53.432;14.534;2022-12-13T14:32:51;-1.10;68.20
75436;DHT22;64014;53.432;14.534;2022-12-13T14:37:55;-1.10;68.60
75436;DHT22;64014;53.432;14.534;2022-12-13T14:40:34;-1.10;68.50
75436;DHT22;64014;53.432;14.534;2022-12-13T14:43:01;-1.10;68.50
75436;DHT22;64014;53.432;14.534;2022-12-13T14:45:36;-1.10;68.60
75436;DHT22;64014;53.432;14.534;2022-12-13T14:48:05;-1.10;68.70
75436;DHT22;64014;53.432;14.534;2022-12-13T14:50:45;-1.10;68.50
75436;DHT22;64014;53.432;14.534;2022-12-13T14:53:36;-1.10;67.80
75436;DHT22;64014;53.432;14.534;2022-12-13T14:56:10;-1.10;67.80
75436;DHT22;64014;53.432;14.534;2022-12-13T14:58:37;-1.10;67.60
75436;DHT22;64014;53.432;14.534;2022-12-13T15:01:24;-1.10;67.50
75436;DHT22;64014;53.432;14.534;2022-12-13T15:03:50;-1.10;67.50
75436;DHT22;64014;53.432;14.534;2022-12-13T15:06:18;-1.10;67.50
75436;DHT22;64014;53.432;14.534;2022-12-13T15:08:45;-1.00;67.50
75436;DHT22;64014;53.432;14.534;2022-12-13T15:11:11;-1.10;67.70
75436;DHT22;64014;53.432;14.534;2022-12-13T15:13:46;-1.00;67.70
75436;DHT22;64014;53.432;14.534;2022-12-13T15:16:22;-1.10;68.00
75436;DHT22;64014;53.432;14.534;2022-12-13T15:18:48;-1.10;68.00
75436;DHT22;64014;53.432;14.534;2022-12-13T15:21:24;-1.10;68.00
75436;DHT22;64014;53.432;14.534;2022-12-13T15:23:51;-1.00;68.20
75436;DHT22;64014;53.432;14.534;2022-12-13T15:26:22;-1.10;68.40
75436;DHT22;64014;53.432;14.534;2022-12-13T15:28:53;-1.10;68.60
75436;DHT22;64014;53.432;14.534;2022-12-13T15:31:20;-1.10;68.70
75436;DHT22;64014;53.432;14.534;2022-12-13T15:33:46;-1.00;68.70
75436;DHT22;64014;53.432;14.534;2022-12-13T15:36:26;-1.00;68.90
75436;DHT22;64014;53.432;14.534;2022-12-13T15:41:34;-1.00;69.30
75436;DHT22;64014;53.432;14.534;2022-12-13T15:44:05;-1.00;69.40
75436;DHT22;64014;53.432;14.534;2022-12-13T15:46:33;-1.00;69.50
75436;DHT22;64014;53.432;14.534;2022-12-13T15:49:04;-1.00;69.60
75436;DHT22;64014;53.432;14.534;2022-12-13T15:51:30;-1.00;69.80
75436;DHT22;64014;53.432;14.534;2022-12-13T15:56:39;-1.00;70.00
75436;DHT22;64014;53.432;14.534;2022-12-13T15:59:38;-1.00;69.90
75436;DHT22;64014;53.432;14.534;2022-12-13T16:02:13;-0.90;69.80
75436;DHT22;64014;53.432;14.534;2022-12-13T16:04:39;-0.90;69.70
75436;DHT22;64014;53.432;14.534;2022-12-13T16:07:05;-0.90;69.60
75436;DHT22;64014;53.432;14.534;2022-12-13T16:09:35;-0.80;69.40
75436;DHT22;64014;53.432;14.534;2022-12-13T16:12:04;-0.80;69.20
75436;DHT22;64014;53.432;14.534;2022-12-13T16:19:29;-0.80;69.30
75436;DHT22;64014;53.432;14.534;2022-12-13T16:21:57;-0.80;69.40
75436;DHT22;64014;53.432;14.534;2022-12-13T16:24:22;-0.80;69.40
75436;DHT22;64014;53.432;14.534;2022-12-13T16:26:48;-0.80;69.40
75436;DHT22;64014;53.432;14.534;2022-12-13T16:29:16;-0.80;69.50
75436;DHT22;64014;53.432;14.534;2022-12-13T16:31:44;-0.90;69.60
75436;DHT22;64014;53.432;14.534;2022-12-13T16:34:11;-0.90;69.70
75436;DHT22;64014;53.432;14.534;2022-12-13T16:36:37;-0.90;69.70
75436;DHT22;64014;53.432;14.534;2022-12-13T16:39:04;-0.90;69.60
75436;DHT22;64014;53.432;14.534;2022-12-13T16:41:41;-0.90;69.40
75436;DHT22;64014;53.432;14.534;2022-12-13T16:44:08;-0.90;69.40
75436;DHT22;64014;53.432;14.534;2022-12-13T16:46:39;-0.90;69.40
75436;DHT22;64014;53.432;14.534;2022-12-13T16:49:25;-0.90;69.40
75436;DHT22;64014;53.432;14.534;2022-12-13T16:51:51;-0.90;69.50
75436;DHT22;64014;53.432;14.534;2022-12-13T16:54:18;-0.80;69.50
75436;DHT22;64014;53.432;14.534;2022-12-13T16:56:44;-0.90;69.60
75436;DHT22;64014;53.432;14.534;2022-12-13T16:59:15;-0.90;69.80
75436;DHT22;64014;53.432;14.534;2022-12-13T17:04:26;-0.90;70.00
75436;DHT22;64014;53.432;14.534;2022-12-13T17:06:52;-0.90;70.10
75436;DHT22;64014;53.432;14.534;2022-12-13T17:09:18;-0.90;70.20
75436;DHT22;64014;53.432;14.534;2022-12-13T17:11:44;-0.90;70.20
75436;DHT22;64014;53.432;14.534;2022-12-13T17:14:10;-0.90;70.40
75436;DHT22;64014;53.432;14.534;2022-12-13T17:16:36;-1.00;70.50
75436;DHT22;64014;53.432;14.534;2022-12-13T17:19:02;-1.00;70.50
75436;DHT22;64014;53.432;14.534;2022-12-13T17:21:28;-1.00;70.50
75436;DHT22;64014;53.432;14.534;2022-12-13T17:23:58;-1.00;70.70
75436;DHT22;64014;53.432;14.534;2022-12-13T17:26:25;-1.00;70.80
75436;DHT22;64014;53.432;14.534;2022-12-13T17:28:51;-1.00;70.80
75436;DHT22;64014;53.432;14.534;2022-12-13T17:31:17;-1.00;70.90
75436;DHT22;64014;53.432;14.534;2022-12-13T17:33:44;-1.00;71.00
75436;DHT22;64014;53.432;14.534;2022-12-13T17:36:11;-1.00;71.00
75436;DHT22;64014;53.432;14.534;2022-12-13T17:38:44;-1.00;71.20
75436;DHT22;64014;53.432;14.534;2022-12-13T17:41:11;-1.00;71.10
75436;DHT22;64014;53.432;14.534;2022-12-13T17:43:37;-1.00;71.10
75436;DHT22;64014;53.432;14.534;2022-12-13T17:46:05;-1.00;71.10